createdAt,value
2022-11-08T00:00:01.440Z,97713.50
2022-11-08T00:02:28.541Z,97707.53
2022-11-08T00:04:55.197Z,97717.31
2022-11-08T00:07:40.781Z,97716.47
2022-11-08T00:10:26.700Z,97708.63
2022-11-08T00:13:11.922Z,97706.22
2022-11-08T00:15:39.046Z,97708.63
2022-11-08T00:18:07.224Z,97717.88
2022-11-08T00:20:34.669Z,97712.69
2022-11-08T00:23:01.541Z,97720.03
2022-11-08T00:25:28.163Z,97713.25
2022-11-08T00:27:55.204Z,97701.59
2022-11-08T00:30:22.020Z,97706.97
2022-11-08T00:32:48.783Z,97696.19
2022-11-08T00:35:15.540Z,97716.97
2022-11-08T00:37:42.201Z,97707.53
2022-11-08T00:40:09.349Z,97701.84
2022-11-08T00:42:35.969Z,97705.31
2022-11-08T00:45:02.875Z,97709.69
2022-11-08T00:47:29.476Z,97709.41
2022-11-08T00:49:56.130Z,97710.22
2022-11-08T00:52:22.978Z,97709.41
2022-11-08T00:54:49.549Z,97697.19
2022-11-08T00:57:16.237Z,97701.28
2022-11-08T00:59:43.074Z,97700.44
2022-11-08T01:02:09.669Z,97707.22
2022-11-08T01:04:36.327Z,97699.88
2022-11-08T01:07:03.380Z,97699.59
2022-11-08T01:09:30.009Z,97699.88
2022-11-08T01:11:56.997Z,97697.97
2022-11-08T01:14:23.902Z,97703.94
2022-11-08T01:16:50.531Z,97680.94
2022-11-08T01:19:17.347Z,97709.06
2022-11-08T01:21:43.982Z,97699.31
2022-11-08T01:24:10.555Z,97694.16
2022-11-08T01:26:37.714Z,97695.75
2022-11-08T01:29:04.384Z,97699.03
2022-11-08T01:31:32.587Z,97699.28
2022-11-08T01:34:00.299Z,97705.25
2022-11-08T01:36:28.463Z,97706.06
2022-11-08T01:38:56.778Z,97701.72
2022-11-08T01:41:25.900Z,97707.66
2022-11-08T01:43:54.897Z,97706.88
2022-11-08T01:46:42.660Z,97682.56
2022-11-08T01:49:37.523Z,97702.78
2022-11-08T01:52:22.959Z,97713.63
2022-11-08T01:55:02.996Z,97704.97
2022-11-08T01:57:52.597Z,97706.56
2022-11-08T02:00:20.039Z,97697.66
2022-11-08T02:02:56.870Z,97711.47
2022-11-08T02:05:26.972Z,97708.22
2022-11-08T02:07:56.488Z,97713.38
2022-11-08T02:10:27.465Z,97715.28
2022-11-08T02:12:55.339Z,97709.88
2022-11-08T02:15:24.984Z,97709.88
2022-11-08T02:17:52.737Z,97710.13
2022-11-08T02:20:19.591Z,97707.41
2022-11-08T02:22:56.593Z,97698.53
2022-11-08T02:25:23.626Z,97714.50
2022-11-08T02:27:50.245Z,97715.28
2022-11-08T02:30:17.006Z,97706.66
2022-11-08T02:32:43.647Z,97717.72
2022-11-08T02:35:18.173Z,97713.09
2022-11-08T02:37:45.796Z,97708.78
2022-11-08T02:40:12.583Z,97718.25
2022-11-08T02:42:39.562Z,97728.81
2022-11-08T02:45:07.944Z,97723.09
2022-11-08T02:47:34.690Z,97722.56
2022-11-08T02:50:01.345Z,97724.72
2022-11-08T02:52:28.207Z,97729.88
2022-11-08T02:54:54.789Z,97717.66
2022-11-08T02:57:21.537Z,97721.78
2022-11-08T02:59:49.349Z,97728.75
2022-11-08T03:02:16.068Z,97730.97
2022-11-08T03:04:42.891Z,97728.25
2022-11-08T03:07:09.740Z,97723.94
2022-11-08T03:09:36.385Z,97719.63
2022-11-08T03:12:03.248Z,97732.06
2022-11-08T03:14:29.934Z,97738.03
2022-11-08T03:16:56.573Z,97736.94
2022-11-08T03:19:23.158Z,97708.28
2022-11-08T03:21:49.863Z,97727.47
2022-11-08T03:24:16.539Z,97741.28
2022-11-08T03:26:43.454Z,97726.66
2022-11-08T03:29:10.145Z,97733.44
2022-11-08T03:31:36.708Z,97729.63
2022-11-08T03:34:03.270Z,97733.69
2022-11-08T03:36:30.406Z,97736.91
2022-11-08T03:38:57.013Z,97731.22
2022-11-08T03:41:23.709Z,97718.78
2022-11-08T03:43:50.396Z,97732.03
2022-11-08T03:46:17.046Z,97724.19
2022-11-08T03:48:43.717Z,97724.19
2022-11-08T03:51:10.663Z,97731.47
2022-11-08T03:53:37.256Z,97723.09
2022-11-08T03:56:04.001Z,97721.72
2022-11-08T03:58:31.048Z,97731.72
2022-11-08T04:00:58.300Z,97734.72
2022-11-08T04:03:25.280Z,97736.63
2022-11-08T04:05:52.053Z,97726.91
2022-11-08T04:08:18.958Z,97725.25
2022-11-08T04:10:45.780Z,97727.44
2022-11-08T04:13:31.148Z,97715.25
2022-11-08T04:15:58.162Z,97722.28
2022-11-08T04:18:43.683Z,97730.16
2022-11-08T04:21:21.970Z,97733.69
2022-11-08T04:23:50.851Z,97733.44
2022-11-08T04:26:18.427Z,97736.94
2022-11-08T04:28:45.521Z,97730.97
2022-11-08T04:31:15.654Z,97738.84
2022-11-08T04:33:42.504Z,97742.38
2022-11-08T04:36:14.802Z,97737.25
2022-11-08T04:38:41.774Z,97746.69
2022-11-08T04:41:12.027Z,97729.38
2022-11-08T04:43:39.012Z,97744.28
2022-11-08T04:46:08.607Z,97741.28
2022-11-08T04:48:35.599Z,97747.25
2022-11-08T04:51:13.345Z,97752.66
2022-11-08T04:53:40.920Z,97752.69
2022-11-08T04:56:10.544Z,97750.00
2022-11-08T04:58:39.727Z,97758.69
2022-11-08T05:01:08.051Z,97768.47
2022-11-08T05:03:35.406Z,97755.78
2022-11-08T05:06:03.886Z,97769.59
2022-11-08T05:08:30.755Z,97769.06
2022-11-08T05:11:01.721Z,97767.97
2022-11-08T05:13:28.838Z,97775.00
2022-11-08T05:15:59.968Z,97779.34
2022-11-08T05:18:26.878Z,97769.06
2022-11-08T05:21:13.596Z,97779.63
2022-11-08T05:23:40.400Z,97778.81
2022-11-08T05:26:07.872Z,97780.72
2022-11-08T05:28:35.029Z,97772.34
2022-11-08T05:31:01.894Z,97783.44
2022-11-08T05:33:28.507Z,97777.22
2022-11-08T05:35:55.338Z,97788.31
2022-11-08T05:38:22.117Z,97791.81
2022-11-08T05:40:48.785Z,97796.69
2022-11-08T05:43:16.013Z,97794.81
2022-11-08T05:45:44.873Z,97796.69
2022-11-08T05:48:11.445Z,97797.50
2022-11-08T05:50:38.128Z,97802.41
2022-11-08T05:53:05.006Z,97808.63
2022-11-08T05:55:31.821Z,97808.63
2022-11-08T05:57:58.701Z,97801.88
2022-11-08T06:00:25.352Z,97792.13
2022-11-08T06:02:52.041Z,97823.81
2022-11-08T06:05:18.861Z,97802.41
2022-11-08T06:07:45.468Z,97824.91
2022-11-08T06:10:12.157Z,97822.47
2022-11-08T06:12:38.871Z,97821.66
2022-11-08T06:15:09.233Z,97829.78
2022-11-08T06:17:36.190Z,97826.00
2022-11-08T06:20:04.349Z,97817.34
2022-11-08T06:22:32.661Z,97826.56
2022-11-08T06:24:59.745Z,97818.94
2022-11-08T06:27:26.554Z,97813.25
2022-11-08T06:29:53.427Z,97825.47
2022-11-08T06:32:20.295Z,97825.44
2022-11-08T06:34:47.036Z,97823.00
2022-11-08T06:37:14.126Z,97831.38
2022-11-08T06:39:41.566Z,97822.97
2022-11-08T06:42:09.076Z,97823.22
2022-11-08T06:44:36.285Z,97831.63
2022-11-08T06:47:02.909Z,97832.69
2022-11-08T06:49:29.885Z,97821.59
2022-11-08T06:51:56.649Z,97818.56
2022-11-08T06:54:25.881Z,97821.25
2022-11-08T06:56:56.536Z,97829.63
2022-11-08T06:59:23.402Z,97825.56
2022-11-08T07:01:50.155Z,97829.63
2022-11-08T07:04:17.142Z,97821.50
2022-11-08T07:06:43.973Z,97813.88
2022-11-08T07:09:10.672Z,97816.56
2022-11-08T07:11:37.486Z,97826.56
2022-11-08T07:14:04.397Z,97817.06
2022-11-08T07:16:30.981Z,97823.56
2022-11-08T07:18:57.808Z,97811.06
2022-11-08T07:21:24.437Z,97824.06
2022-11-08T07:23:51.036Z,97827.28
2022-11-08T07:26:18.429Z,97821.34
2022-11-08T07:28:45.047Z,97828.34
2022-11-08T07:31:11.664Z,97837.03
2022-11-08T07:33:38.683Z,97831.59
2022-11-08T07:36:05.619Z,97825.06
2022-11-08T07:38:32.485Z,97831.03
2022-11-08T07:41:00.892Z,97840.50
2022-11-08T07:43:29.529Z,97834.25
2022-11-08T07:45:58.773Z,97840.19
2022-11-08T07:48:26.623Z,97838.59
2022-11-08T07:50:53.419Z,97844.56
2022-11-08T07:53:20.799Z,97839.63
2022-11-08T07:55:48.633Z,97848.84
2022-11-08T07:58:15.846Z,97842.84
2022-11-08T08:00:44.483Z,97839.56
2022-11-08T08:03:13.002Z,97838.22
2022-11-08T08:05:45.189Z,97838.47
2022-11-08T08:08:13.970Z,97829.75
2022-11-08T08:10:41.238Z,97838.66
2022-11-08T08:13:08.448Z,97834.56
2022-11-08T08:15:35.347Z,97832.41
2022-11-08T08:18:04.066Z,97826.16
2022-11-08T08:20:31.427Z,97836.16
2022-11-08T08:22:58.341Z,97832.88
2022-11-08T08:25:25.837Z,97834.44
2022-11-08T08:27:55.548Z,97832.78
2022-11-08T08:30:23.504Z,97826.28
2022-11-08T08:33:08.191Z,97848.22
2022-11-08T08:35:38.819Z,97836.50
2022-11-08T08:38:06.785Z,97841.59
2022-11-08T08:40:34.713Z,97847.84
2022-11-08T08:43:03.596Z,97837.53
2022-11-08T08:45:31.556Z,97839.69
2022-11-08T08:47:59.203Z,97843.69
2022-11-08T08:50:28.455Z,97847.19
2022-11-08T08:53:03.134Z,97835.72
2022-11-08T08:55:29.899Z,97846.53
2022-11-08T08:57:56.953Z,97837.88
2022-11-08T09:03:12.164Z,97834.00
2022-11-08T09:05:41.854Z,97848.59
2022-11-08T09:08:08.514Z,97852.63
2022-11-08T09:10:35.664Z,97851.31
2022-11-08T09:13:03.766Z,97852.38
2022-11-08T09:15:30.709Z,97850.78
2022-11-08T09:17:57.999Z,97843.72
2022-11-08T09:20:25.218Z,97848.81
2022-11-08T09:22:51.803Z,97846.91
2022-11-08T09:25:18.844Z,97850.38
2022-11-08T09:27:46.045Z,97839.22
2022-11-08T09:30:12.809Z,97850.56
2022-11-08T09:32:59.688Z,97841.00
2022-11-08T09:35:26.174Z,97847.19
2022-11-08T09:37:54.076Z,97849.63
2022-11-08T09:40:40.747Z,97850.41
2022-11-08T09:43:31.324Z,97854.25
2022-11-08T09:45:58.244Z,97864.09
2022-11-08T09:48:43.194Z,97856.25
2022-11-08T09:51:16.458Z,97846.81
2022-11-08T09:53:52.324Z,97857.03
2022-11-08T09:56:23.573Z,97862.19
2022-11-08T09:59:02.581Z,97861.69
2022-11-08T10:01:34.624Z,97859.22
2022-11-08T10:04:13.668Z,97851.59
2022-11-08T10:07:03.245Z,97860.81
2022-11-08T10:09:35.900Z,97843.38
2022-11-08T10:12:14.721Z,97849.03
2022-11-08T10:15:06.158Z,97851.50
2022-11-08T10:17:42.773Z,97844.13
2022-11-08T10:20:09.726Z,97842.72
2022-11-08T10:22:42.468Z,97838.63
2022-11-08T10:25:27.112Z,97838.34
2022-11-08T10:27:56.516Z,97838.84
2022-11-08T10:30:27.724Z,97840.47
2022-11-08T10:32:55.797Z,97841.00
2022-11-08T10:35:40.928Z,97839.88
2022-11-08T10:38:22.332Z,97836.03
2022-11-08T10:40:55.557Z,97838.50
2022-11-08T10:43:29.942Z,97832.81
2022-11-08T10:45:56.953Z,97835.78
2022-11-08T10:48:23.556Z,97832.00
2022-11-08T10:50:51.883Z,97827.88
2022-11-08T10:53:30.656Z,97844.66
2022-11-08T10:56:01.332Z,97836.28
2022-11-08T10:58:29.927Z,97840.91
2022-11-08T11:01:15.887Z,97840.09
2022-11-08T11:03:43.110Z,97833.09
2022-11-08T11:06:31.211Z,97837.47
2022-11-08T11:09:17.213Z,97834.22
2022-11-08T11:11:45.110Z,97827.50
2022-11-08T11:14:18.288Z,97830.69
2022-11-08T11:17:01.495Z,97830.09
2022-11-08T11:19:29.643Z,97812.78
2022-11-08T11:22:08.594Z,97817.59
2022-11-08T11:24:56.164Z,97827.16
2022-11-08T11:27:36.814Z,97827.16
2022-11-08T11:30:12.680Z,97829.56
2022-11-08T11:32:40.165Z,97836.13
2022-11-08T11:35:13.900Z,97824.72
2022-11-08T11:37:44.809Z,97825.53
2022-11-08T11:40:40.744Z,97824.50
2022-11-08T11:43:16.614Z,97815.59
2022-11-08T11:45:50.405Z,97809.09
2022-11-08T11:48:22.544Z,97810.72
2022-11-08T11:50:50.520Z,97808.66
2022-11-08T11:53:25.676Z,97810.25
2022-11-08T11:56:20.092Z,97806.47
2022-11-08T11:59:10.263Z,97817.91
2022-11-08T12:01:46.012Z,97814.66
2022-11-08T12:04:55.123Z,97812.53
2022-11-08T12:07:30.817Z,97815.19
2022-11-08T12:10:29.526Z,97811.94
2022-11-08T12:13:03.894Z,97808.13
2022-11-08T12:15:49.605Z,97807.63
2022-11-08T12:18:43.362Z,97811.94
2022-11-08T12:21:38.516Z,97808.34
2022-11-08T12:24:33.967Z,97805.63
2022-11-08T12:27:06.011Z,97813.75
2022-11-08T12:29:51.902Z,97824.06
2022-11-08T12:32:19.010Z,97804.69
2022-11-08T12:35:26.609Z,97806.03
2022-11-08T12:38:21.508Z,97804.84
2022-11-08T12:41:08.691Z,97804.81
2022-11-08T12:43:44.871Z,97805.19
2022-11-08T12:46:16.539Z,97797.69
2022-11-08T12:48:50.272Z,97806.75
2022-11-08T12:51:29.439Z,97803.91
2022-11-08T12:54:14.872Z,97801.06
2022-11-08T12:56:48.291Z,97804.25
2022-11-08T12:59:23.100Z,97802.41
2022-11-08T13:01:51.220Z,97802.31
2022-11-08T13:04:36.995Z,97815.03
2022-11-08T13:07:14.506Z,97797.69
2022-11-08T13:09:58.184Z,97796.66
2022-11-08T13:13:10.775Z,97806.44
2022-11-08T13:16:07.354Z,97811.59
2022-11-08T13:18:35.481Z,97802.41
2022-11-08T13:21:28.049Z,97802.19
2022-11-08T13:23:55.773Z,97806.63
2022-11-08T13:26:26.543Z,97813.38
2022-11-08T13:28:54.044Z,97817.28
2022-11-08T13:31:23.304Z,97813.81
2022-11-08T13:34:28.011Z,97815.78
2022-11-08T13:37:22.819Z,97813.88
2022-11-08T13:40:09.057Z,97819.84
2022-11-08T13:42:35.945Z,97818.75
2022-11-08T13:45:33.114Z,97816.31
2022-11-08T13:48:28.672Z,97807.41
2022-11-08T13:50:57.801Z,97818.28
2022-11-08T13:53:42.766Z,97816.66
2022-11-08T13:56:09.408Z,97815.13
2022-11-08T13:58:44.969Z,97813.56
2022-11-08T14:01:21.082Z,97818.50
2022-11-08T14:03:47.933Z,97819.66
2022-11-08T14:06:36.871Z,97822.97
2022-11-08T14:09:35.907Z,97817.53
2022-11-08T14:12:22.231Z,97807.66
2022-11-08T14:14:55.197Z,97815.00
2022-11-08T14:18:01.392Z,97817.84
2022-11-08T14:20:28.590Z,97820.06
2022-11-08T14:22:57.001Z,97820.69
2022-11-08T14:25:23.762Z,97812.75
2022-11-08T14:27:50.859Z,97809.81
2022-11-08T14:30:20.607Z,97814.66
2022-11-08T14:32:48.203Z,97817.97
2022-11-08T14:35:25.799Z,97800.69
2022-11-08T14:37:53.747Z,97815.53
2022-11-08T14:40:26.823Z,97810.97
2022-11-08T14:42:55.458Z,97805.59
2022-11-08T14:45:26.675Z,97813.97
2022-11-08T14:48:03.438Z,97807.81
2022-11-08T14:50:34.939Z,97813.16
2022-11-08T14:53:21.580Z,97817.00
2022-11-08T14:55:53.863Z,97802.88
2022-11-08T14:58:20.570Z,97820.75
2022-11-08T15:00:49.565Z,97811.78
2022-11-08T15:03:19.279Z,97803.09
2022-11-08T15:06:14.221Z,97818.03
2022-11-08T15:08:51.565Z,97820.53
2022-11-08T15:11:52.724Z,97820.88
2022-11-08T15:14:22.152Z,97816.31
2022-11-08T15:16:52.098Z,97820.97
2022-11-08T15:19:44.975Z,97818.88
2022-11-08T15:22:27.232Z,97823.34
2022-11-08T15:25:18.962Z,97817.13
2022-11-08T15:27:56.695Z,97812.09
2022-11-08T15:30:39.858Z,97818.63
2022-11-08T15:33:44.954Z,97820.63
2022-11-08T15:36:13.997Z,97815.88
2022-11-08T15:38:42.671Z,97821.41
2022-11-08T15:41:33.147Z,97830.47
2022-11-08T15:44:21.940Z,97828.44
2022-11-08T15:46:49.260Z,97830.66
2022-11-08T15:49:27.127Z,97829.63
2022-11-08T15:51:56.313Z,97834.03
2022-11-08T15:54:24.314Z,97828.41
2022-11-08T15:56:54.934Z,97824.38
2022-11-08T15:59:27.969Z,97813.56
2022-11-08T16:02:02.624Z,97827.69
2022-11-08T16:04:30.315Z,97829.31
2022-11-08T16:06:58.083Z,97842.59
2022-11-08T16:09:25.008Z,97838.84
2022-11-08T16:11:52.124Z,97840.22
2022-11-08T16:14:22.605Z,97838.31
2022-11-08T16:16:49.663Z,97836.97
2022-11-08T16:19:22.267Z,97833.19
2022-11-08T16:21:49.684Z,97836.16
2022-11-08T16:24:16.333Z,97830.22
2022-11-08T16:26:44.658Z,97839.13
2022-11-08T16:29:20.140Z,97823.41
2022-11-08T16:31:48.079Z,97830.19
2022-11-08T16:34:14.800Z,97843.16
2022-11-08T16:36:45.076Z,97842.09
2022-11-08T16:39:26.445Z,97840.69
2022-11-08T16:41:53.285Z,97833.59
2022-11-08T16:44:20.495Z,97841.75
2022-11-08T16:46:48.005Z,97843.88
2022-11-08T16:49:20.974Z,97862.53
2022-11-08T16:51:48.640Z,97855.75
2022-11-08T16:54:19.749Z,97860.59
2022-11-08T16:56:46.471Z,97864.63
2022-11-08T16:59:13.292Z,97862.69
2022-11-08T17:01:40.458Z,97862.13
2022-11-08T17:04:07.077Z,97853.44
2022-11-08T17:06:33.980Z,97855.03
2022-11-08T17:09:00.687Z,97853.91
2022-11-08T17:11:27.259Z,97853.38
2022-11-08T17:13:54.958Z,97852.53
2022-11-08T17:16:21.635Z,97855.47
2022-11-08T17:18:52.537Z,97856.50
2022-11-08T17:21:43.637Z,97860.53
2022-11-08T17:24:07.229Z,97861.34
2022-11-08T17:26:33.837Z,97858.59
2022-11-08T17:29:00.457Z,97856.13
2022-11-08T17:31:27.236Z,97863.94
2022-11-08T17:33:56.071Z,97856.84
2022-11-08T17:36:23.350Z,97857.94
2022-11-08T17:38:49.990Z,97858.44
2022-11-08T17:41:17.176Z,97856.47
2022-11-08T17:43:44.281Z,97862.41
2022-11-08T17:46:11.674Z,97864.25
2022-11-08T17:48:40.087Z,97863.13
2022-11-08T17:51:06.909Z,97864.72
2022-11-08T17:53:34.274Z,97861.47
2022-11-08T17:56:04.170Z,97863.03
2022-11-08T17:58:33.814Z,97861.44
2022-11-08T18:01:03.130Z,97864.34
2022-11-08T18:03:30.220Z,97862.44
2022-11-08T18:06:12.607Z,97834.44
2022-11-08T18:08:40.579Z,97865.09
2022-11-08T18:11:07.385Z,97856.94
2022-11-08T18:13:35.268Z,97869.88
2022-11-08T18:16:09.360Z,97862.88
2022-11-08T18:18:36.582Z,97859.59
2022-11-08T18:21:03.446Z,97857.47
2022-11-08T18:23:30.465Z,97864.22
2022-11-08T18:25:57.403Z,97858.59
2022-11-08T18:28:24.646Z,97861.84
2022-11-08T18:30:51.697Z,97867.22
2022-11-08T18:33:19.964Z,97863.25
2022-11-08T18:35:47.309Z,97867.91
2022-11-08T18:38:15.019Z,97866.84
2022-11-08T18:40:44.650Z,97851.47
2022-11-08T18:43:11.307Z,97856.66
2022-11-08T18:45:38.155Z,97858.63
2022-11-08T18:48:04.913Z,97851.91
2022-11-08T18:50:31.978Z,97864.63
2022-11-08T18:53:03.247Z,97857.88
2022-11-08T18:55:31.755Z,97865.22
2022-11-08T18:58:01.299Z,97867.13
2022-11-08T19:00:28.001Z,97855.44
2022-11-08T19:02:54.955Z,97862.22
2022-11-08T19:05:21.876Z,97864.94
2022-11-08T19:07:48.474Z,97861.66
2022-11-08T19:10:15.540Z,97857.06
2022-11-08T19:12:42.434Z,97861.38
2022-11-08T19:15:09.710Z,97857.31
2022-11-08T19:17:36.543Z,97860.75
2022-11-08T19:20:04.291Z,97859.34
2022-11-08T19:22:31.133Z,97862.84
2022-11-08T19:24:57.753Z,97858.75
2022-11-08T19:27:24.610Z,97869.56
2022-11-08T19:29:51.435Z,97863.84
2022-11-08T19:32:18.046Z,97866.22
2022-11-08T19:34:47.131Z,97867.22
2022-11-08T19:37:13.848Z,97870.69
2022-11-08T19:39:40.439Z,97873.34
2022-11-08T19:42:07.371Z,97877.88
2022-11-08T19:44:33.991Z,97872.13
2022-11-08T19:47:00.817Z,97872.88
2022-11-08T19:49:28.796Z,97866.31
2022-11-08T19:51:55.564Z,97876.00
2022-11-08T19:54:22.203Z,97869.25
2022-11-08T19:57:06.030Z,97867.28
2022-11-08T19:59:33.393Z,97874.81
2022-11-08T20:02:00.430Z,97872.56
2022-11-08T20:04:27.231Z,97860.34
2022-11-08T20:06:54.014Z,97862.97
2022-11-08T20:09:24.613Z,97868.06
2022-11-08T20:11:55.181Z,97868.56
2022-11-08T20:14:21.971Z,97867.44
2022-11-08T20:16:53.192Z,97873.06
2022-11-08T20:19:21.253Z,97870.56
2022-11-08T20:21:48.405Z,97877.25
2022-11-08T20:24:16.065Z,97882.31
2022-11-08T20:26:43.312Z,97871.72
2022-11-08T20:29:10.304Z,97877.63
2022-11-08T20:31:37.021Z,97875.66
2022-11-08T20:34:06.102Z,97879.38
2022-11-08T20:36:35.444Z,97889.56
2022-11-08T20:39:06.856Z,97891.13
2022-11-08T20:41:35.653Z,97886.16
2022-11-08T20:44:03.048Z,97893.44
2022-11-08T20:46:29.717Z,97893.09
2022-11-08T20:49:00.360Z,97894.16
2022-11-08T20:51:27.849Z,97893.81
2022-11-08T20:53:56.191Z,97900.22
2022-11-08T20:56:24.086Z,97895.00
2022-11-08T20:58:52.228Z,97896.81
2022-11-08T21:01:21.475Z,97909.09
2022-11-08T21:03:48.734Z,97903.97
2022-11-08T21:06:22.894Z,97887.09
2022-11-08T21:08:59.935Z,97909.00
2022-11-08T21:11:30.820Z,97909.66
2022-11-08T21:13:58.266Z,97904.44
2022-11-08T21:16:46.984Z,97908.91
2022-11-08T21:19:11.889Z,97909.88
2022-11-08T21:21:38.629Z,97912.00
2022-11-08T21:24:05.436Z,97908.97
2022-11-08T21:26:36.440Z,97907.03
2022-11-08T21:29:04.883Z,97907.03
2022-11-08T21:31:31.890Z,97908.06
2022-11-08T21:33:59.107Z,97910.75
2022-11-08T21:36:29.235Z,97908.53
2022-11-08T21:38:56.117Z,97906.59
2022-11-08T21:41:23.283Z,97903.56
2022-11-08T21:43:49.947Z,97907.78
2022-11-08T21:46:19.380Z,97899.97
2022-11-08T21:48:47.347Z,97907.22
2022-11-08T21:51:14.611Z,97902.81
2022-11-08T21:53:52.402Z,97901.66
2022-11-08T21:56:22.438Z,97899.91
2022-11-08T21:58:49.201Z,97902.03
2022-11-08T22:01:16.791Z,97906.00
2022-11-08T22:03:44.115Z,97902.25
2022-11-08T22:06:10.789Z,97901.19
2022-11-08T22:08:37.533Z,97905.53
2022-11-08T22:11:04.768Z,97903.88
2022-11-08T22:13:31.431Z,97900.72
2022-11-08T22:15:58.133Z,97899.09
2022-11-08T22:18:36.716Z,97900.97
2022-11-08T22:21:29.887Z,97893.38
2022-11-08T22:23:56.944Z,97890.63
2022-11-08T22:26:23.636Z,97898.19
2022-11-08T22:28:50.333Z,97892.84
2022-11-08T22:31:17.598Z,97891.19
2022-11-08T22:33:44.494Z,97897.13
2022-11-08T22:36:11.959Z,97898.50
2022-11-08T22:38:39.179Z,97899.91
2022-11-08T22:41:06.403Z,97897.22
2022-11-08T22:43:34.755Z,97895.47
2022-11-08T22:46:02.117Z,97903.88
2022-11-08T22:48:28.774Z,97898.50
2022-11-08T22:50:55.589Z,97899.31
2022-11-08T22:53:22.489Z,97902.56
2022-11-08T22:55:49.106Z,97899.63
2022-11-08T22:58:15.927Z,97912.59
2022-11-08T23:00:45.734Z,97907.78
2022-11-08T23:03:12.774Z,97917.25
2022-11-08T23:05:39.399Z,97905.69
2022-11-08T23:08:06.884Z,97912.22
2022-11-08T23:10:53.467Z,97910.59
2022-11-08T23:13:38.626Z,97907.06
2022-11-08T23:16:24.277Z,97908.94
2022-11-08T23:19:09.359Z,97907.66
2022-11-08T23:21:54.518Z,97914.66
2022-11-08T23:24:21.524Z,97904.38
2022-11-08T23:27:06.992Z,97903.81
2022-11-08T23:29:52.350Z,97897.03
2022-11-08T23:32:18.953Z,97898.91
2022-11-08T23:34:45.526Z,97903.22
2022-11-08T23:37:12.138Z,97902.41
2022-11-08T23:39:58.652Z,97901.84
2022-11-08T23:42:44.366Z,97891.78
2022-11-08T23:45:11.396Z,97896.28
2022-11-08T23:47:38.197Z,97897.81
2022-11-08T23:50:05.442Z,97900.25
2022-11-08T23:52:33.017Z,97897.34
2022-11-08T23:54:59.710Z,97897.34
2022-11-08T23:57:26.269Z,97900.03
2022-11-08T23:59:52.907Z,97902.47
